sensor_id;sensor_type;location;lat;lon;timestamp;pressure;altitude;pressure_sealevel;temperature;humidity
5062;BME280;2351;50.812;12.872;2024-01-11T00:00:19;99215.97;;;-10.63;75.95
5062;BME280;2351;50.812;12.872;2024-01-11T00:02:52;99208.25;;;-10.66;76.33
5062;BME280;2351;50.812;12.872;2024-01-11T00:05:24;99209.06;;;-10.67;76.32
5062;BME280;2351;50.812;12.872;2024-01-11T00:07:55;99210.78;;;-10.67;76.24
5062;BME280;2351;50.812;12.872;2024-01-11T00:10:27;99204.78;;;-10.69;75.94
5062;BME280;2351;50.812;12.872;2024-01-11T00:12:59;99199.59;;;-10.72;76.66
5062;BME280;2351;50.812;12.872;2024-01-11T00:15:30;99197.84;;;-10.75;76.68
5062;BME280;2351;50.812;12.872;2024-01-11T00:18:04;99196.94;;;-10.77;76.68
5062;BME280;2351;50.812;12.872;2024-01-11T00:20:36;99207.13;;;-10.79;76.90
5062;BME280;2351;50.812;12.872;2024-01-11T00:23:08;99197.69;;;-10.83;76.27
5062;BME280;2351;50.812;12.872;2024-01-11T00:25:40;99195.91;;;-10.87;76.69
5062;BME280;2351;50.812;12.872;2024-01-11T00:28:11;99193.28;;;-10.88;77.01
5062;BME280;2351;50.812;12.872;2024-01-11T00:30:43;99194.97;;;-10.91;76.49
5062;BME280;2351;50.812;12.872;2024-01-11T00:33:16;99200.88;;;-10.95;76.73
5062;BME280;2351;50.812;12.872;2024-01-11T00:35:48;99199.84;;;-11.01;77.31
5062;BME280;2351;50.812;12.872;2024-01-11T00:38:19;99203.28;;;-11.01;77.15
5062;BME280;2351;50.812;12.872;2024-01-11T00:40:51;99200.69;;;-11.02;77.61
5062;BME280;2351;50.812;12.872;2024-01-11T00:43:23;99192.16;;;-11.05;76.93
5062;BME280;2351;50.812;12.872;2024-01-11T00:45:54;99189.53;;;-11.08;77.72
5062;BME280;2351;50.812;12.872;2024-01-11T00:48:27;99194.63;;;-11.08;77.51
5062;BME280;2351;50.812;12.872;2024-01-11T00:50:59;99202.25;;;-11.09;77.94
5062;BME280;2351;50.812;12.872;2024-01-11T00:53:31;99189.41;;;-11.12;77.43
5062;BME280;2351;50.812;12.872;2024-01-11T00:56:03;99184.25;;;-11.15;77.87
5062;BME280;2351;50.812;12.872;2024-01-11T00:58:35;99182.53;;;-11.16;77.85
5062;BME280;2351;50.812;12.872;2024-01-11T01:01:08;99187.56;;;-11.20;77.76
5062;BME280;2351;50.812;12.872;2024-01-11T01:03:42;99194.28;;;-11.23;78.00
5062;BME280;2351;50.812;12.872;2024-01-11T01:06:13;99180.66;;;-11.24;78.12
5062;BME280;2351;50.812;12.872;2024-01-11T01:08:45;99177.28;;;-11.23;78.35
5062;BME280;2351;50.812;12.872;2024-01-11T01:11:17;99170.50;;;-11.21;78.54
5062;BME280;2351;50.812;12.872;2024-01-11T01:13:48;99167.97;;;-11.19;78.25
5062;BME280;2351;50.812;12.872;2024-01-11T01:16:20;99168.84;;;-11.18;78.47
5062;BME280;2351;50.812;12.872;2024-01-11T01:18:53;99169.69;;;-11.18;78.16
5062;BME280;2351;50.812;12.872;2024-01-11T01:21:25;99168.78;;;-11.22;78.50
5062;BME280;2351;50.812;12.872;2024-01-11T01:23:56;99165.25;;;-11.27;78.48
5062;BME280;2351;50.812;12.872;2024-01-11T01:26:28;99154.09;;;-11.30;78.46
5062;BME280;2351;50.812;12.872;2024-01-11T01:29:01;99156.59;;;-11.32;78.41
5062;BME280;2351;50.812;12.872;2024-01-11T01:31:32;99160.88;;;-11.32;79.05
5062;BME280;2351;50.812;12.872;2024-01-11T01:34:09;99153.16;;;-11.34;78.80
5062;BME280;2351;50.812;12.872;2024-01-11T01:36:40;99163.38;;;-11.34;79.19
5062;BME280;2351;50.812;12.872;2024-01-11T01:39:12;99161.56;;;-11.40;79.27
5062;BME280;2351;50.812;12.872;2024-01-11T01:41:44;99154.69;;;-11.42;78.88
5062;BME280;2351;50.812;12.872;2024-01-11T01:44:16;99152.03;;;-11.47;79.23
5062;BME280;2351;50.812;12.872;2024-01-11T01:46:48;99152.84;;;-11.50;79.47
5062;BME280;2351;50.812;12.872;2024-01-11T01:49:21;99153.59;;;-11.54;79.53
5062;BME280;2351;50.812;12.872;2024-01-11T01:51:54;99150.13;;;-11.56;79.34
5062;BME280;2351;50.812;12.872;2024-01-11T01:54:26;99152.69;;;-11.56;79.46
5062;BME280;2351;50.812;12.872;2024-01-11T01:57:00;99145.84;;;-11.57;79.54
5062;BME280;2351;50.812;12.872;2024-01-11T01:59:33;99145.84;;;-11.57;79.46
5062;BME280;2351;50.812;12.872;2024-01-11T02:02:05;99145.00;;;-11.57;79.74
5062;BME280;2351;50.812;12.872;2024-01-11T02:04:39;99154.34;;;-11.58;79.56
5062;BME280;2351;50.812;12.872;2024-01-11T02:07:11;99154.34;;;-11.58;80.17
5062;BME280;2351;50.812;12.872;2024-01-11T02:09:43;99158.53;;;-11.61;79.79
5062;BME280;2351;50.812;12.872;2024-01-11T02:12:15;99164.44;;;-11.64;80.11
5062;BME280;2351;50.812;12.872;2024-01-11T02:14:47;99169.50;;;-11.67;80.53
5062;BME280;2351;50.812;12.872;2024-01-11T02:17:19;99177.91;;;-11.71;80.33
5062;BME280;2351;50.812;12.872;2024-01-11T02:19:52;99179.56;;;-11.73;79.83
5062;BME280;2351;50.812;12.872;2024-01-11T02:22:28;99178.66;;;-11.75;80.69
5062;BME280;2351;50.812;12.872;2024-01-11T02:25:01;99196.53;;;-11.75;80.30
5062;BME280;2351;50.812;12.872;2024-01-11T02:27:45;99191.44;;;-11.75;80.66
5062;BME280;2351;50.812;12.872;2024-01-11T02:30:17;99179.63;;;-11.70;80.75
5062;BME280;2351;50.812;12.872;2024-01-11T02:32:49;99171.94;;;-11.72;80.56
5062;BME280;2351;50.812;12.872;2024-01-11T02:35:22;99172.72;;;-11.74;80.52
5062;BME280;2351;50.812;12.872;2024-01-11T02:37:54;99172.66;;;-11.77;80.55
5062;BME280;2351;50.812;12.872;2024-01-11T02:40:29;99172.69;;;-11.76;80.90
5062;BME280;2351;50.812;12.872;2024-01-11T02:43:07;99175.25;;;-11.76;81.12
5062;BME280;2351;50.812;12.872;2024-01-11T02:45:39;99177.81;;;-11.76;81.19
5062;BME280;2351;50.812;12.872;2024-01-11T02:48:10;99180.38;;;-11.74;80.62
5062;BME280;2351;50.812;12.872;2024-01-11T02:50:42;99174.44;;;-11.75;80.84
5062;BME280;2351;50.812;12.872;2024-01-11T02:53:14;99176.94;;;-11.76;81.08
5062;BME280;2351;50.812;12.872;2024-01-11T02:55:47;99176.84;;;-11.80;81.56
5062;BME280;2351;50.812;12.872;2024-01-11T02:58:19;99193.81;;;-11.83;81.55
5062;BME280;2351;50.812;12.872;2024-01-11T03:00:50;99189.50;;;-11.86;81.44
5062;BME280;2351;50.812;12.872;2024-01-11T03:03:22;99179.22;;;-11.89;81.26
5062;BME280;2351;50.812;12.872;2024-01-11T03:05:54;99182.59;;;-11.90;81.35
5062;BME280;2351;50.812;12.872;2024-01-11T03:08:26;99184.25;;;-11.90;81.81
5062;BME280;2351;50.812;12.872;2024-01-11T03:10:59;99194.53;;;-11.89;81.66
5062;BME280;2351;50.812;12.872;2024-01-11T03:13:31;99188.53;;;-11.91;81.78
5062;BME280;2351;50.812;12.872;2024-01-11T03:16:05;99193.59;;;-11.92;82.05
5062;BME280;2351;50.812;12.872;2024-01-11T03:18:36;99207.16;;;-11.95;82.22
5062;BME280;2351;50.812;12.872;2024-01-11T03:21:08;99224.13;;;-11.99;81.88
5062;BME280;2351;50.812;12.872;2024-01-11T03:23:40;99227.44;;;-12.03;81.76
5062;BME280;2351;50.812;12.872;2024-01-11T03:26:13;99218.00;;;-12.05;82.21
5062;BME280;2351;50.812;12.872;2024-01-11T03:28:45;99208.63;;;-12.06;82.10
5062;BME280;2351;50.812;12.872;2024-01-11T03:31:17;99217.09;;;-12.07;81.99
5062;BME280;2351;50.812;12.872;2024-01-11T03:33:49;99217.06;;;-12.09;82.38
5062;BME280;2351;50.812;12.872;2024-01-11T03:36:23;99215.38;;;-12.08;82.57
5062;BME280;2351;50.812;12.872;2024-01-11T03:38:55;99222.16;;;-12.09;82.41
5062;BME280;2351;50.812;12.872;2024-01-11T03:41:28;99229.72;;;-12.14;82.55
5062;BME280;2351;50.812;12.872;2024-01-11T03:43:59;99232.09;;;-12.20;82.71
5062;BME280;2351;50.812;12.872;2024-01-11T03:46:31;99226.09;;;-12.22;82.94
5062;BME280;2351;50.812;12.872;2024-01-11T03:49:03;99218.44;;;-12.22;82.59
5062;BME280;2351;50.812;12.872;2024-01-11T03:51:34;99215.06;;;-12.21;82.74
5062;BME280;2351;50.812;12.872;2024-01-11T03:54:06;99201.38;;;-12.23;82.76
5062;BME280;2351;50.812;12.872;2024-01-11T03:56:39;99204.84;;;-12.21;83.29
5062;BME280;2351;50.812;12.872;2024-01-11T03:59:11;99222.75;;;-12.19;83.37
5062;BME280;2351;50.812;12.872;2024-01-11T04:01:43;99221.13;;;-12.16;83.63
5062;BME280;2351;50.812;12.872;2024-01-11T04:04:15;99202.41;;;-12.16;83.26
5062;BME280;2351;50.812;12.872;2024-01-11T04:06:46;99203.34;;;-12.13;83.65
5062;BME280;2351;50.812;12.872;2024-01-11T04:09:18;99198.34;;;-12.08;84.29
5062;BME280;2351;50.812;12.872;2024-01-11T04:11:52;99172.16;;;-11.99;84.61
5062;BME280;2351;50.812;12.872;2024-01-11T04:14:23;99162.91;;;-11.94;84.42
5062;BME280;2351;50.812;12.872;2024-01-11T04:16:55;99171.50;;;-11.90;85.02
5062;BME280;2351;50.812;12.872;2024-01-11T04:19:27;99175.00;;;-11.87;85.11
5062;BME280;2351;50.812;12.872;2024-01-11T04:21:58;99181.00;;;-11.85;84.85
5062;BME280;2351;50.812;12.872;2024-01-11T04:24:30;99205.81;;;-11.81;84.96
5062;BME280;2351;50.812;12.872;2024-01-11T04:27:03;99187.06;;;-11.81;85.44
5062;BME280;2351;50.812;12.872;2024-01-11T04:29:35;99171.81;;;-11.76;85.47
5062;BME280;2351;50.812;12.872;2024-01-11T04:32:07;99179.47;;;-11.76;85.00
5062;BME280;2351;50.812;12.872;2024-01-11T04:34:38;99174.28;;;-11.80;85.11
5062;BME280;2351;50.812;12.872;2024-01-11T04:37:10;99153.00;;;-11.80;85.65
5062;BME280;2351;50.812;12.872;2024-01-11T04:39:42;99148.75;;;-11.80;85.48
5062;BME280;2351;50.812;12.872;2024-01-11T04:42:15;99145.44;;;-11.77;85.77
5062;BME280;2351;50.812;12.872;2024-01-11T04:44:47;99146.31;;;-11.75;86.09
5062;BME280;2351;50.812;12.872;2024-01-11T04:47:18;99146.31;;;-11.75;86.19
5062;BME280;2351;50.812;12.872;2024-01-11T04:49:50;99157.44;;;-11.73;86.38
5062;BME280;2351;50.812;12.872;2024-01-11T04:52:22;99151.50;;;-11.72;86.52
5062;BME280;2351;50.812;12.872;2024-01-11T04:54:53;99157.47;;;-11.71;86.17
5062;BME280;2351;50.812;12.872;2024-01-11T04:57:26;99172.78;;;-11.71;86.65
5062;BME280;2351;50.812;12.872;2024-01-11T04:59:58;99164.31;;;-11.70;87.04
5062;BME280;2351;50.812;12.872;2024-01-11T05:02:29;99164.28;;;-11.72;86.54
5062;BME280;2351;50.812;12.872;2024-01-11T05:05:01;99183.00;;;-11.73;86.51
5062;BME280;2351;50.812;12.872;2024-01-11T05:07:33;99187.28;;;-11.72;86.75
5062;BME280;2351;50.812;12.872;2024-01-11T05:10:05;99185.50;;;-11.74;86.70
5062;BME280;2351;50.812;12.872;2024-01-11T05:12:39;99205.91;;;-11.76;86.74
5062;BME280;2351;50.812;12.872;2024-01-11T05:15:11;99209.25;;;-11.78;86.73
5062;BME280;2351;50.812;12.872;2024-01-11T05:17:43;99230.41;;;-11.84;86.78
5062;BME280;2351;50.812;12.872;2024-01-11T05:20:14;99236.31;;;-11.87;87.16
5062;BME280;2351;50.812;12.872;2024-01-11T05:22:46;99246.47;;;-11.88;87.56
5062;BME280;2351;50.812;12.872;2024-01-11T05:25:18;99233.66;;;-11.90;88.24
5062;BME280;2351;50.812;12.872;2024-01-11T05:27:51;99245.53;;;-11.92;87.92
5062;BME280;2351;50.812;12.872;2024-01-11T05:30:23;99254.84;;;-11.94;88.25
5062;BME280;2351;50.812;12.872;2024-01-11T05:32:55;99258.19;;;-11.97;88.72
5062;BME280;2351;50.812;12.872;2024-01-11T05:35:26;99245.47;;;-11.95;88.21
5062;BME280;2351;50.812;12.872;2024-01-11T05:37:58;99228.47;;;-11.93;88.62
5062;BME280;2351;50.812;12.872;2024-01-11T05:40:30;99231.91;;;-11.92;88.53
5062;BME280;2351;50.812;12.872;2024-01-11T05:43:03;99214.91;;;-11.90;88.36
5062;BME280;2351;50.812;12.872;2024-01-11T05:45:35;99227.63;;;-11.93;88.68
5062;BME280;2351;50.812;12.872;2024-01-11T05:48:06;99226.75;;;-11.94;88.23
5062;BME280;2351;50.812;12.872;2024-01-11T05:50:38;99219.97;;;-11.93;89.04
5062;BME280;2351;50.812;12.872;2024-01-11T05:53:10;99223.38;;;-11.93;88.63
5062;BME280;2351;50.812;12.872;2024-01-11T05:55:42;99213.22;;;-11.91;88.59
5062;BME280;2351;50.812;12.872;2024-01-11T05:58:15;99220.78;;;-11.94;88.89
5062;BME280;2351;50.812;12.872;2024-01-11T06:00:47;99220.75;;;-11.96;89.24
5062;BME280;2351;50.812;12.872;2024-01-11T06:03:19;99211.41;;;-11.96;89.57
5062;BME280;2351;50.812;12.872;2024-01-11T06:05:51;99192.81;;;-11.90;89.46
5062;BME280;2351;50.812;12.872;2024-01-11T06:08:23;99213.25;;;-11.90;89.39
5062;BME280;2351;50.812;12.872;2024-01-11T06:10:54;99195.47;;;-11.85;89.33
5062;BME280;2351;50.812;12.872;2024-01-11T06:13:27;99190.44;;;-11.82;89.27
5062;BME280;2351;50.812;12.872;2024-01-11T06:15:59;99204.09;;;-11.80;89.89
5062;BME280;2351;50.812;12.872;2024-01-11T06:18:31;99201.63;;;-11.77;90.14
5062;BME280;2351;50.812;12.872;2024-01-11T06:21:03;99205.09;;;-11.73;90.15
5062;BME280;2351;50.812;12.872;2024-01-11T06:23:34;99221.31;;;-11.73;90.53
5062;BME280;2351;50.812;12.872;2024-01-11T06:26:07;99229.84;;;-11.72;90.02
5062;BME280;2351;50.812;12.872;2024-01-11T06:28:40;99240.81;;;-11.76;90.54
5062;BME280;2351;50.812;12.872;2024-01-11T06:31:12;99256.94;;;-11.79;90.63
5062;BME280;2351;50.812;12.872;2024-01-11T06:33:44;99262.00;;;-11.81;90.28
5062;BME280;2351;50.812;12.872;2024-01-11T06:36:15;99252.66;;;-11.80;90.77
5062;BME280;2351;50.812;12.872;2024-01-11T06:38:47;99233.03;;;-11.81;90.48
5062;BME280;2351;50.812;12.872;2024-01-11T06:41:19;99235.69;;;-11.76;90.90
5062;BME280;2351;50.812;12.872;2024-01-11T06:43:52;99231.47;;;-11.74;90.65
5062;BME280;2351;50.812;12.872;2024-01-11T06:46:23;99242.59;;;-11.72;91.03
5062;BME280;2351;50.812;12.872;2024-01-11T06:48:55;99246.06;;;-11.70;91.15
5062;BME280;2351;50.812;12.872;2024-01-11T06:51:27;99255.53;;;-11.66;90.97
5062;BME280;2351;50.812;12.872;2024-01-11T06:53:59;99246.28;;;-11.61;90.98
5062;BME280;2351;50.812;12.872;2024-01-11T06:56:31;99248.06;;;-11.58;91.17
5062;BME280;2351;50.812;12.872;2024-01-11T06:59:04;99271.06;;;-11.57;91.58
5062;BME280;2351;50.812;12.872;2024-01-11T07:01:37;99270.31;;;-11.54;91.30
5062;BME280;2351;50.812;12.872;2024-01-11T07:04:09;99263.56;;;-11.51;91.28
5062;BME280;2351;50.812;12.872;2024-01-11T07:06:41;99250.78;;;-11.51;91.33
5062;BME280;2351;50.812;12.872;2024-01-11T07:09:12;99254.25;;;-11.48;91.34
5062;BME280;2351;50.812;12.872;2024-01-11T07:11:44;99260.25;;;-11.46;91.53
5062;BME280;2351;50.812;12.872;2024-01-11T07:14:17;99254.34;;;-11.44;91.98
5062;BME280;2351;50.812;12.872;2024-01-11T07:16:49;99261.22;;;-11.41;91.51
5062;BME280;2351;50.812;12.872;2024-01-11T07:19:21;99242.53;;;-11.39;92.05
5062;BME280;2351;50.812;12.872;2024-01-11T07:21:53;99228.19;;;-11.32;92.38
5062;BME280;2351;50.812;12.872;2024-01-11T07:24:24;99223.16;;;-11.29;92.56
5062;BME280;2351;50.812;12.872;2024-01-11T07:26:56;99220.69;;;-11.24;92.12
5062;BME280;2351;50.812;12.872;2024-01-11T07:29:29;99214.88;;;-11.18;92.96
5062;BME280;2351;50.812;12.872;2024-01-11T07:32:01;99200.53;;;-11.10;93.19
5062;BME280;2351;50.812;12.872;2024-01-11T07:34:34;99189.69;;;-11.00;93.71
5062;BME280;2351;50.812;12.872;2024-01-11T07:37:06;99201.03;;;-10.87;93.61
5062;BME280;2351;50.812;12.872;2024-01-11T07:39:38;99204.69;;;-10.74;94.35
5062;BME280;2351;50.812;12.872;2024-01-11T07:42:10;99191.34;;;-10.59;94.25
5062;BME280;2351;50.812;12.872;2024-01-11T07:44:43;99196.66;;;-10.47;94.86
5062;BME280;2351;50.812;12.872;2024-01-11T07:47:15;99196.06;;;-10.32;95.06
5062;BME280;2351;50.812;12.872;2024-01-11T07:49:47;99203.16;;;-10.17;94.82
5062;BME280;2351;50.812;12.872;2024-01-11T07:52:19;99215.50;;;-9.92;96.50
5062;BME280;2351;50.812;12.872;2024-01-11T07:54:51;99205.72;;;-9.64;96.88
5062;BME280;2351;50.812;12.872;2024-01-11T07:57:24;99188.28;;;-9.29;98.18
5062;BME280;2351;50.812;12.872;2024-01-11T07:59:57;99172.31;;;-9.06;97.67
5062;BME280;2351;50.812;12.872;2024-01-11T08:02:29;99178.44;;;-8.93;97.52
5062;BME280;2351;50.812;12.872;2024-01-11T08:05:01;99179.44;;;-8.83;98.04
5062;BME280;2351;50.812;12.872;2024-01-11T08:07:33;99164.09;;;-8.77;98.13
5062;BME280;2351;50.812;12.872;2024-01-11T08:10:06;99175.19;;;-8.78;96.76
5062;BME280;2351;50.812;12.872;2024-01-11T08:12:39;99181.25;;;-8.74;98.12
5062;BME280;2351;50.812;12.872;2024-01-11T08:15:12;99189.00;;;-8.68;98.18
5062;BME280;2351;50.812;12.872;2024-01-11T08:17:44;99176.16;;;-8.68;97.31
5062;BME280;2351;50.812;12.872;2024-01-11T08:20:16;99179.56;;;-8.72;97.64
5062;BME280;2351;50.812;12.872;2024-01-11T08:22:47;99172.63;;;-8.80;97.52
5062;BME280;2351;50.812;12.872;2024-01-11T08:25:19;99182.84;;;-8.84;97.43
5062;BME280;2351;50.812;12.872;2024-01-11T08:27:51;99181.09;;;-8.87;97.28
5062;BME280;2351;50.812;12.872;2024-01-11T08:30:24;99184.50;;;-8.88;97.20
5062;BME280;2351;50.812;12.872;2024-01-11T08:32:55;99196.44;;;-8.90;97.37
5062;BME280;2351;50.812;12.872;2024-01-11T08:35:27;99220.38;;;-8.91;97.69
5062;BME280;2351;50.812;12.872;2024-01-11T08:37:59;99216.09;;;-8.92;97.71
5062;BME280;2351;50.812;12.872;2024-01-11T08:40:31;99195.59;;;-8.90;97.98
5062;BME280;2351;50.812;12.872;2024-01-11T08:43:03;99184.59;;;-8.82;98.31
5062;BME280;2351;50.812;12.872;2024-01-11T08:45:38;99182.97;;;-8.73;98.65
5062;BME280;2351;50.812;12.872;2024-01-11T08:48:09;99183.06;;;-8.64;100.00
5062;BME280;2351;50.812;12.872;2024-01-11T08:50:41;99176.44;;;-8.40;100.00
5062;BME280;2351;50.812;12.872;2024-01-11T08:53:13;99181.53;;;-7.42;100.00
5062;BME280;2351;50.812;12.872;2024-01-11T08:55:45;99185.44;;;-6.06;100.00
5062;BME280;2351;50.812;12.872;2024-01-11T08:58:17;99200.03;;;-5.40;100.00
5062;BME280;2351;50.812;12.872;2024-01-11T09:00:50;99199.16;;;-5.34;100.00
5062;BME280;2351;50.812;12.872;2024-01-11T09:03:22;99206.91;;;-5.78;100.00
5062;BME280;2351;50.812;12.872;2024-01-11T09:05:54;99201.78;;;-5.90;100.00
5062;BME280;2351;50.812;12.872;2024-01-11T09:08:28;99206.06;;;-5.67;100.00
5062;BME280;2351;50.812;12.872;2024-01-11T09:11:00;99212.06;;;-5.31;100.00
5062;BME280;2351;50.812;12.872;2024-01-11T09:13:32;99211.13;;;-5.01;100.00
5062;BME280;2351;50.812;12.872;2024-01-11T09:16:05;99212.78;;;-4.75;100.00
5062;BME280;2351;50.812;12.872;2024-01-11T09:18:37;99212.66;;;-4.51;100.00
5062;BME280;2351;50.812;12.872;2024-01-11T09:21:08;99201.44;;;-4.44;100.00
5062;BME280;2351;50.812;12.872;2024-01-11T09:23:40;99203.97;;;-4.36;100.00
5062;BME280;2351;50.812;12.872;2024-01-11T09:26:12;99201.44;;;-4.41;100.00
5062;BME280;2351;50.812;12.872;2024-01-11T09:28:44;99208.44;;;-4.65;99.53
5062;BME280;2351;50.812;12.872;2024-01-11T09:31:17;99219.69;;;-4.83;100.00
5062;BME280;2351;50.812;12.872;2024-01-11T09:33:49;99218.81;;;-4.80;100.00
5062;BME280;2351;50.812;12.872;2024-01-11T09:36:21;99211.03;;;-4.70;100.00
5062;BME280;2351;50.812;12.872;2024-01-11T09:38:52;99202.34;;;-4.50;100.00
5062;BME280;2351;50.812;12.872;2024-01-11T09:41:25;99191.03;;;-4.30;100.00
5062;BME280;2351;50.812;12.872;2024-01-11T09:44:00;99185.88;;;-4.35;100.00
5062;BME280;2351;50.812;12.872;2024-01-11T09:46:33;99199.69;;;-4.39;100.00
5062;BME280;2351;50.812;12.872;2024-01-11T09:49:05;99194.50;;;-4.38;100.00
5062;BME280;2351;50.812;12.872;2024-01-11T09:51:39;99192.72;;;-4.25;100.00
5062;BME280;2351;50.812;12.872;2024-01-11T09:54:14;99183.22;;;-4.21;100.00
5062;BME280;2351;50.812;12.872;2024-01-11T09:56:47;99176.34;;;-4.25;100.00
5062;BME280;2351;50.812;12.872;2024-01-11T09:59:21;99175.47;;;-4.22;100.00
5062;BME280;2351;50.812;12.872;2024-01-11T10:01:56;99191.84;;;-4.24;98.65
5062;BME280;2351;50.812;12.872;2024-01-11T10:04:28;99193.66;;;-4.40;96.48
5062;BME280;2351;50.812;12.872;2024-01-11T10:07:00;99195.38;;;-4.37;98.68
5062;BME280;2351;50.812;12.872;2024-01-11T10:09:34;99203.88;;;-4.16;99.37
5062;BME280;2351;50.812;12.872;2024-01-11T10:12:08;99206.38;;;-4.04;98.83
5062;BME280;2351;50.812;12.872;2024-01-11T10:14:40;99204.78;;;-4.24;94.56
5062;BME280;2351;50.812;12.872;2024-01-11T10:17:14;99223.78;;;-4.29;96.00
5062;BME280;2351;50.812;12.872;2024-01-11T10:19:46;99223.66;;;-4.09;97.52
5062;BME280;2351;50.812;12.872;2024-01-11T10:22:19;99206.31;;;-3.91;97.27
5062;BME280;2351;50.812;12.872;2024-01-11T10:24:51;99200.22;;;-3.89;97.03
5062;BME280;2351;50.812;12.872;2024-01-11T10:27:26;99200.19;;;-3.83;96.52
5062;BME280;2351;50.812;12.872;2024-01-11T10:29:57;99194.13;;;-3.80;96.77
5062;BME280;2351;50.812;12.872;2024-01-11T10:32:30;99184.63;;;-3.78;96.85
5062;BME280;2351;50.812;12.872;2024-01-11T10:35:05;99178.56;;;-3.74;96.29
5062;BME280;2351;50.812;12.872;2024-01-11T10:37:37;99188.91;;;-3.71;96.44
5062;BME280;2351;50.812;12.872;2024-01-11T10:40:10;99176.75;;;-3.64;95.89
5062;BME280;2351;50.812;12.872;2024-01-11T10:42:44;99174.91;;;-3.53;96.91
5062;BME280;2351;50.812;12.872;2024-01-11T10:45:17;99178.16;;;-3.30;97.66
5062;BME280;2351;50.812;12.872;2024-01-11T10:47:53;99178.72;;;-3.02;99.01
5062;BME280;2351;50.812;12.872;2024-01-11T10:50:30;99161.19;;;-2.77;97.93
5062;BME280;2351;50.812;12.872;2024-01-11T10:53:11;99146.28;;;-2.62;96.19
5062;BME280;2351;50.812;12.872;2024-01-11T10:55:46;99135.69;;;-2.47;97.35
5062;BME280;2351;50.812;12.872;2024-01-11T10:58:19;99139.44;;;-2.66;92.13
5062;BME280;2351;50.812;12.872;2024-01-11T11:00:53;99141.38;;;-2.84;90.33
5062;BME280;2351;50.812;12.872;2024-01-11T11:03:27;99140.75;;;-3.01;88.74
5062;BME280;2351;50.812;12.872;2024-01-11T11:06:00;99147.72;;;-3.10;89.70
5062;BME280;2351;50.812;12.872;2024-01-11T11:08:32;99133.19;;;-3.20;90.62
5062;BME280;2351;50.812;12.872;2024-01-11T11:11:04;99135.88;;;-3.29;90.38
5062;BME280;2351;50.812;12.872;2024-01-11T11:13:37;99142.59;;;-3.14;91.23
5062;BME280;2351;50.812;12.872;2024-01-11T11:16:10;99139.53;;;-2.76;94.17
5062;BME280;2351;50.812;12.872;2024-01-11T11:18:43;99131.91;;;-2.24;96.19
5062;BME280;2351;50.812;12.872;2024-01-11T11:21:15;99137.44;;;-1.88;96.25
5062;BME280;2351;50.812;12.872;2024-01-11T11:23:46;99131.13;;;-1.74;95.58
5062;BME280;2351;50.812;12.872;2024-01-11T11:26:18;99120.53;;;-1.62;95.84
5062;BME280;2351;50.812;12.872;2024-01-11T11:28:50;99117.59;;;-1.43;95.20
5062;BME280;2351;50.812;12.872;2024-01-11T11:31:35;99108.13;;;-1.44;91.48
5062;BME280;2351;50.812;12.872;2024-01-11T11:34:10;99120.38;;;-1.54;90.99
5062;BME280;2351;50.812;12.872;2024-01-11T11:36:44;99113.50;;;-1.55;90.00
5062;BME280;2351;50.812;12.872;2024-01-11T11:39:18;99105.97;;;-1.69;88.03
5062;BME280;2351;50.812;12.872;2024-01-11T11:41:50;99090.53;;;-1.77;88.35
5062;BME280;2351;50.812;12.872;2024-01-11T11:44:24;99089.75;;;-1.82;87.68
5062;BME280;2351;50.812;12.872;2024-01-11T11:46:56;99090.75;;;-1.91;86.94
5062;BME280;2351;50.812;12.872;2024-01-11T11:50:03;99095.34;;;-2.08;85.44
5062;BME280;2351;50.812;12.872;2024-01-11T11:52:37;99089.53;;;-2.23;85.65
5062;BME280;2351;50.812;12.872;2024-01-11T11:55:09;99078.19;;;-2.16;86.35
5062;BME280;2351;50.812;12.872;2024-01-11T11:57:42;99080.50;;;-1.99;86.31
5062;BME280;2351;50.812;12.872;2024-01-11T12:00:15;99077.66;;;-1.85;86.70
5062;BME280;2351;50.812;12.872;2024-01-11T12:02:47;99072.25;;;-1.72;87.12
5062;BME280;2351;50.812;12.872;2024-01-11T12:05:20;99068.59;;;-1.62;85.87
5062;BME280;2351;50.812;12.872;2024-01-11T12:07:52;99066.84;;;-1.60;85.34
5062;BME280;2351;50.812;12.872;2024-01-11T12:10:26;99065.91;;;-1.56;85.33
5062;BME280;2351;50.812;12.872;2024-01-11T12:12:57;99071.00;;;-1.51;84.34
5062;BME280;2351;50.812;12.872;2024-01-11T12:15:31;99068.22;;;-1.42;85.37
5062;BME280;2351;50.812;12.872;2024-01-11T12:18:03;99071.41;;;-1.26;85.20
5062;BME280;2351;50.812;12.872;2024-01-11T12:20:36;99060.69;;;-1.10;85.03
5062;BME280;2351;50.812;12.872;2024-01-11T12:23:08;99063.97;;;-1.02;84.74
5062;BME280;2351;50.812;12.872;2024-01-11T12:25:40;99057.69;;;-0.92;84.20
5062;BME280;2351;50.812;12.872;2024-01-11T12:28:12;99045.22;;;-0.77;82.88
5062;BME280;2351;50.812;12.872;2024-01-11T12:30:45;99050.16;;;-0.65;81.83
5062;BME280;2351;50.812;12.872;2024-01-11T12:33:17;99058.69;;;-0.58;81.82
5062;BME280;2351;50.812;12.872;2024-01-11T12:35:50;99060.56;;;-0.65;81.07
5062;BME280;2351;50.812;12.872;2024-01-11T12:38:22;99065.16;;;-0.76;80.31
5062;BME280;2351;50.812;12.872;2024-01-11T12:40:54;99073.28;;;-0.92;79.41
5062;BME280;2351;50.812;12.872;2024-01-11T12:43:25;99070.03;;;-1.01;78.70
5062;BME280;2351;50.812;12.872;2024-01-11T12:45:57;99060.75;;;-1.13;77.85
5062;BME280;2351;50.812;12.872;2024-01-11T12:48:29;99054.94;;;-1.26;76.07
5062;BME280;2351;50.812;12.872;2024-01-11T12:51:04;99048.19;;;-1.35;77.47
5062;BME280;2351;50.812;12.872;2024-01-11T12:53:36;99032.44;;;-1.27;79.01
5062;BME280;2351;50.812;12.872;2024-01-11T12:56:08;99033.38;;;-1.30;77.48
5062;BME280;2351;50.812;12.872;2024-01-11T12:58:41;99047.34;;;-1.37;77.61
5062;BME280;2351;50.812;12.872;2024-01-11T13:01:13;99047.47;;;-1.43;77.89
5062;BME280;2351;50.812;12.872;2024-01-11T13:03:46;99046.78;;;-1.53;76.78
5062;BME280;2351;50.812;12.872;2024-01-11T13:06:19;99044.19;;;-1.53;77.69
5062;BME280;2351;50.812;12.872;2024-01-11T13:08:51;99051.19;;;-1.55;77.69
5062;BME280;2351;50.812;12.872;2024-01-11T13:11:23;99044.19;;;-1.53;78.44
5062;BME280;2351;50.812;12.872;2024-01-11T13:13:55;99033.75;;;-1.48;78.18
5062;BME280;2351;50.812;12.872;2024-01-11T13:16:29;99042.44;;;-1.51;76.53
5062;BME280;2351;50.812;12.872;2024-01-11T13:19:01;99043.41;;;-1.55;77.56
5062;BME280;2351;50.812;12.872;2024-01-11T13:21:34;99034.88;;;-1.63;76.91
5062;BME280;2351;50.812;12.872;2024-01-11T13:24:06;99027.25;;;-1.71;76.42
5062;BME280;2351;50.812;12.872;2024-01-11T13:26:39;99028.19;;;-1.75;77.12
5062;BME280;2351;50.812;12.872;2024-01-11T13:29:10;99028.22;;;-1.77;77.69
5062;BME280;2351;50.812;12.872;2024-01-11T13:31:42;99023.00;;;-1.75;77.30